Saint Kitts, Saint Kitts and Nevis

11:49 PM AST on July 11, 2014 (GMT -0400)
Robert L Bradshaw International (TKPK) Elev 157 ft | 17.30 °N, 62.68 °W | Change Station

Current weather conditions updated 2 hours ago

Partly Cloudy
Partly Cloudy
81 °F
Feels Like 86 °F
N
12
Wind Variable Wind from ENE

Tomorrow is forecast to be Cooler than today.

Today
High -- | Low -- °F
--% Chance of Precip.
Yesterday
High -- | Low -- °F
Precip. -- in
5:43 AM 6:49 PM
Full, 100% visible
Pressure 30.09 in
Visibility 6.2 miles
Clouds Few 2000 ft
Heat Index 86 °F
Dew Point 75 °F
Humidity 84%
Rainfall 0.00 in
Snow Depth Not available.
UV 0 out of 12
Pollen Not available.
Air Quality Not available.
Flu Activity Not available.
METAR TKPK 120100Z 07010KT 9999 FEW020 27/24 Q1019

More Conditions Fewer Conditions

Pressure 30.09 in
Visibility 6.2 miles
Clouds Few 2000 ft
Heat Index 86 °F
Dew Point 75 °F
Humidity 84%
Rainfall 0.00 in
Snow Depth Not available.
UV 0 out of 12
Pollen Not available.
Air Quality Not available.
Flu Activity Not available.
METAR TKPK 120100Z 07010KT 9999 FEW020 27/24 Q1019

More Conditions Fewer Conditions

10-Day Weather Forecast

Almanac

Astronomy

Jul. 11, 2014 Rise Set
Actual Time 5:43 AM AST 6:49 PM AST
Civil Twilight 5:19 AM AST 7:12 PM AST
Nautical Twilight 4:51 AM AST 7:40 PM AST
Astronomical Twilight 4:22 AM AST 8:09 PM AST
Moon 6:04 PM AST (7/11) 4:42 AM AST (7/11)
Length of Visible Light 13h 53m
Length of Day
13h 05m
Tomorrow will be 0m 25s shorter.
Full, 100% of the Moon is Illuminated
Today
Full
Jul 12
Full
Jul 18
Last Quarter
Jul 26
New
Aug 3
First Quarter

Today's Extremes

Country Highs Country Lows

Community

WunderPhotos

Upload Photos

1,732,682 photos uploaded!

Nearby

Snow Depth

Not available.

Earthquake Activity

City Distance Mag. Time & Date
No recent earthquake activity has been reported nearby.
Minimum magnitude displayed is 2.5.

Coastal Water Temperatures

Place Temperature
No Stations Reporting

Nearby Weather Stations

Station Location Temp. Heat Index Dew Point Humidity Wind Precip. Elev Updated Type
Oranjestad 78.3 °F 81 °F 73 °F 83% WNW  at  2.0 mph 0.01 in / hr 575 ft 11:48 PM AST Rapid Fire

Show More Stations Show Fewer Stations